Time;durP1;ratioP1;P1;durP2;ratioP2;P2;SDS_P1;SDS_P2;PMS_P1;PMS_P2;Temp;Humidity;BMP_temperature;BMP_pressure;BME280_temperature;BME280_humidity;BME280_pressure;Samples;Min_cycle;Max_cycle;Signal;HPM_P1;HPM_P2
2021/03/16 00:07:06;;;;;;;5.43;3.08;;;;;;;;;;4343168;28;20117;-49
2021/03/16 00:09:33;;;;;;;6.80;2.83;;;;;;;;;;4191543;34;20202;-52
2021/03/16 00:11:59;;;;;;;5.22;3.08;;;;;;;;;;4191144;34;20141;-50
2021/03/16 00:14:25;;;;;;;3.72;2.75;;;;;;;;;;4191457;34;20113;-51
2021/03/16 00:16:51;;;;;;;4.28;2.90;;;;;;;;;;4191387;34;20569;-52
2021/03/16 00:19:20;;;;;;;5.90;3.00;;;;;;;;;;4191486;34;20217;-51
2021/03/16 00:21:46;;;;;;;3.80;2.95;;;;;;;;;;4191124;34;20216;-51
2021/03/16 00:24:12;;;;;;;4.35;3.08;;;;;;;;;;4191122;34;20102;-49
2021/03/16 00:26:37;;;;;;;6.47;3.10;;;;;;;;;;4191089;34;20561;-48
2021/03/16 00:29:03;;;;;;;3.72;2.90;;;;;;;;;;4191147;34;20141;-51
2021/03/16 00:31:29;;;;;;;4.28;3.40;;;;;;;;;;4191164;34;20221;-51
2021/03/16 00:33:55;;;;;;;4.15;3.10;;;;;;;;;;4191151;34;20209;-49
2021/03/16 00:36:21;;;;;;;5.18;2.83;;;;;;;;;;4190947;34;20110;-50
2021/03/16 00:38:47;;;;;;;4.00;3.05;;;;;;;;;;4191070;34;20529;-49
2021/03/16 00:41:13;;;;;;;5.50;3.30;;;;;;;;;;4190875;34;20210;-51
2021/03/16 00:43:39;;;;;;;5.00;3.35;;;;;;;;;;4190974;34;20118;-52
2021/03/16 00:46:04;;;;;;;4.75;3.20;;;;;;;;;;4190803;34;20128;-50
2021/03/16 00:48:30;;;;;;;5.68;3.22;;;;;;;;;;4191033;34;20121;-48
2021/03/16 00:50:56;;;;;;;3.83;3.12;;;;;;;;;;4191074;34;20110;-49
2021/03/16 00:53:22;;;;;;;3.95;3.10;;;;;;;;;;4190944;34;20114;-49
2021/03/16 00:55:48;;;;;;;5.03;3.12;;;;;;;;;;4191043;34;20103;-51
2021/03/16 00:58:14;;;;;;;6.10;3.33;;;;;;;;;;4190861;34;20106;-49
2021/03/16 01:00:39;;;;;;;4.03;3.30;;;;;;;;;;4190723;34;20118;-50
2021/03/16 01:03:05;;;;;;;4.47;3.15;;;;;;;;;;4177868;34;20130;-51
2021/03/16 01:05:35;;;;;;;8.50;3.35;;;;;;;;;;4190068;34;20149;-50
2021/03/16 01:08:01;;;;;;;5.43;3.15;;;;;;;;;;4190651;34;20099;-50
2021/03/16 01:10:28;;;;;;;4.10;2.80;;;;;;;;;;4190823;34;20512;-50
2021/03/16 01:12:54;;;;;;;4.53;3.05;;;;;;;;;;4190965;34;20149;-52
2021/03/16 01:15:20;;;;;;;4.72;3.37;;;;;;;;;;4190658;34;20561;-53
2021/03/16 01:17:46;;;;;;;7.85;3.22;;;;;;;;;;4190685;34;20126;-50
2021/03/16 01:20:14;;;;;;;4.45;2.80;;;;;;;;;;4190490;34;20461;-49
2021/03/16 01:22:40;;;;;;;6.28;3.70;;;;;;;;;;4190816;34;20177;-51
2021/03/16 01:25:06;;;;;;;6.25;2.70;;;;;;;;;;4190735;34;20443;-50
2021/03/16 01:27:32;;;;;;;4.70;3.40;;;;;;;;;;4190739;34;20094;-50
2021/03/16 01:29:58;;;;;;;6.45;3.42;;;;;;;;;;4190735;34;20129;-50
2021/03/16 01:32:24;;;;;;;4.90;3.33;;;;;;;;;;4190612;34;20102;-50
2021/03/16 01:34:50;;;;;;;5.37;3.15;;;;;;;;;;4190628;34;20153;-49
2021/03/16 01:37:16;;;;;;;8.02;3.40;;;;;;;;;;4190562;34;20121;-53
2021/03/16 01:39:42;;;;;;;9.38;2.90;;;;;;;;;;4190304;34;20133;-49
2021/03/16 01:42:07;;;;;;;3.80;2.85;;;;;;;;;;4190158;34;20103;-49
2021/03/16 01:44:33;;;;;;;7.03;3.20;;;;;;;;;;4190613;34;20102;-49
2021/03/16 01:46:59;;;;;;;7.53;3.33;;;;;;;;;;4190221;34;20102;-49
2021/03/16 01:49:25;;;;;;;12.35;3.50;;;;;;;;;;4190382;34;20458;-50
2021/03/16 01:51:51;;;;;;;6.68;3.50;;;;;;;;;;4177839;34;20118;-51
2021/03/16 01:54:17;;;;;;;6.40;3.30;;;;;;;;;;4190246;34;20110;-51
2021/03/16 01:56:43;;;;;;;5.47;3.25;;;;;;;;;;4190295;34;20474;-52
2021/03/16 01:59:09;;;;;;;6.35;2.90;;;;;;;;;;4177495;34;20773;-49
2021/03/16 02:01:34;;;;;;;7.20;3.55;;;;;;;;;;4165874;34;20102;-50
2021/03/16 02:04:00;;;;;;;5.87;3.42;;;;;;;;;;4190086;34;20109;-49
2021/03/16 02:06:33;;;;;;;8.20;3.10;;;;;;;;;;4189832;34;20489;-49
2021/03/16 02:09:05;;;;;;;7.12;3.62;;;;;;;;;;4166124;34;20522;-49
2021/03/16 02:11:57;;;;;;;6.20;3.55;;;;;;;;;;4190038;34;20317;-49
2021/03/16 02:14:35;;;;;;;7.45;4.20;;;;;;;;;;4190142;34;20439;-49
2021/03/16 02:17:22;;;;;;;10.40;3.87;;;;;;;;;;4167616;34;20435;-50
2021/03/16 02:19:54;;;;;;;6.20;3.42;;;;;;;;;;4192440;34;20106;-50
2021/03/16 02:22:20;;;;;;;5.05;3.10;;;;;;;;;;4179330;34;20439;-49
2021/03/16 02:24:58;;;;;;;8.93;3.50;;;;;;;;;;4192132;34;20104;-49
2021/03/16 02:27:24;;;;;;;7.65;3.47;;;;;;;;;;4192180;34;20541;-49
2021/03/16 02:29:55;;;;;;;11.40;3.60;;;;;;;;;;4192405;34;20121;-48
2021/03/16 02:32:26;;;;;;;6.55;3.30;;;;;;;;;;4168074;34;20148;-56
2021/03/16 02:35:04;;;;;;;5.43;3.50;;;;;;;;;;4179344;34;20154;-53
2021/03/16 02:37:33;;;;;;;7.35;3.33;;;;;;;;;;4192181;34;20206;-52
2021/03/16 02:39:58;;;;;;;6.07;3.08;;;;;;;;;;4179463;34;20129;-49
2021/03/16 02:42:24;;;;;;;7.47;3.42;;;;;;;;;;4167741;34;20559;-51
2021/03/16 02:44:50;;;;;;;9.20;3.47;;;;;;;;;;4167904;34;20618;-56
2021/03/16 02:47:20;;;;;;;6.05;3.12;;;;;;;;;;4179128;34;20144;-56
2021/03/16 02:49:46;;;;;;;8.98;3.17;;;;;;;;;;4168335;34;20183;-55
2021/03/16 02:52:12;;;;;;;9.57;3.33;;;;;;;;;;4192118;34;20134;-52
2021/03/16 02:54:38;;;;;;;8.10;3.58;;;;;;;;;;4167838;34;20498;-51
2021/03/16 02:57:04;;;;;;;8.68;3.87;;;;;;;;;;4191836;34;20117;-57
2021/03/16 02:59:31;;;;;;;7.60;3.15;;;;;;;;;;4179150;34;20097;-53
2021/03/16 03:01:57;;;;;;;8.02;3.25;;;;;;;;;;4191958;34;20106;-56
2021/03/16 03:04:23;;;;;;;11.57;3.83;;;;;;;;;;4167924;34;20109;-52
2021/03/16 03:06:49;;;;;;;6.90;3.28;;;;;;;;;;4178643;34;20114;-49
2021/03/16 03:09:15;;;;;;;5.45;3.40;;;;;;;;;;4191645;34;20114;-50
2021/03/16 03:11:41;;;;;;;8.55;4.22;;;;;;;;;;4179071;34;20117;-51
2021/03/16 03:14:10;;;;;;;8.27;3.87;;;;;;;;;;4178911;34;20185;-52
2021/03/16 03:16:35;;;;;;;8.15;3.45;;;;;;;;;;4191784;34;20458;-51
2021/03/16 03:19:02;;;;;;;6.20;3.62;;;;;;;;;;4191634;34;20102;-59
2021/03/16 03:21:34;;;;;;;8.73;3.35;;;;;;;;;;4191580;34;20221;-52
2021/03/16 03:24:03;;;;;;;11.60;3.20;;;;;;;;;;4191521;34;20113;-49
2021/03/16 03:26:43;;;;;;;11.80;4.40;;;;;;;;;;4178902;34;20117;-55
2021/03/16 03:29:10;;;;;;;11.48;3.55;;;;;;;;;;4179548;34;20094;-57
2021/03/16 03:31:38;;;;;;;9.80;3.58;;;;;;;;;;4191602;34;20121;-53
2021/03/16 03:34:04;;;;;;;8.10;3.70;;;;;;;;;;4191492;34;20553;-52
2021/03/16 03:36:30;;;;;;;7.68;3.35;;;;;;;;;;4178232;34;20497;-55
2021/03/16 03:38:55;;;;;;;13.50;3.65;;;;;;;;;;4191268;34;20118;-55
2021/03/16 03:41:22;;;;;;;10.88;3.85;;;;;;;;;;4177688;34;20364;-51
2021/03/16 03:43:48;;;;;;;12.65;3.67;;;;;;;;;;4165456;34;20183;-51
2021/03/16 03:46:15;;;;;;;12.77;3.58;;;;;;;;;;4178770;34;20122;-52
2021/03/16 03:48:40;;;;;;;8.52;3.55;;;;;;;;;;4167367;34;20133;-51
2021/03/16 03:51:06;;;;;;;6.87;3.72;;;;;;;;;;4178579;34;20121;-54
2021/03/16 03:53:32;;;;;;;11.30;3.35;;;;;;;;;;4191447;34;20216;-54
2021/03/16 03:55:58;;;;;;;13.20;3.58;;;;;;;;;;4167336;34;20185;-54
2021/03/16 03:58:24;;;;;;;12.52;3.28;;;;;;;;;;4178894;34;20605;-56
2021/03/16 04:00:50;;;;;;;11.35;3.70;;;;;;;;;;4191281;34;20185;-55
2021/03/16 04:03:16;;;;;;;9.13;3.50;;;;;;;;;;4191127;34;20130;-56
2021/03/16 04:05:41;;;;;;;9.15;3.87;;;;;;;;;;4178208;34;20118;-54
2021/03/16 04:08:07;;;;;;;12.48;3.95;;;;;;;;;;4165104;34;20133;-57
2021/03/16 04:10:36;;;;;;;10.85;5.15;;;;;;;;;;4177568;34;20122;-55
2021/03/16 04:13:05;;;;;;;11.23;3.40;;;;;;;;;;4165137;34;20114;-56
2021/03/16 04:15:31;;;;;;;11.15;3.42;;;;;;;;;;4177631;34;20106;-57
2021/03/16 04:17:57;;;;;;;14.52;4.03;;;;;;;;;;4177583;34;20114;-55
2021/03/16 04:20:23;;;;;;;12.00;3.83;;;;;;;;;;4177452;34;20514;-57
2021/03/16 04:22:49;;;;;;;19.85;5.25;;;;;;;;;;4153516;34;20218;-55
2021/03/16 04:25:15;;;;;;;12.20;4.37;;;;;;;;;;4164696;34;20118;-54
2021/03/16 04:27:41;;;;;;;18.83;4.18;;;;;;;;;;4177400;34;20149;-56
2021/03/16 04:30:07;;;;;;;13.10;4.45;;;;;;;;;;4164619;34;20558;-56
2021/03/16 04:32:33;;;;;;;13.80;3.83;;;;;;;;;;4177634;34;20118;-57
2021/03/16 04:34:59;;;;;;;17.37;3.83;;;;;;;;;;4177302;34;20490;-55
2021/03/16 04:37:25;;;;;;;14.95;4.18;;;;;;;;;;4177301;34;20098;-56
2021/03/16 04:39:51;;;;;;;18.55;4.72;;;;;;;;;;4176736;34;20214;-54
2021/03/16 04:42:17;;;;;;;16.83;4.18;;;;;;;;;;4177365;34;20202;-55
2021/03/16 04:44:43;;;;;;;17.65;3.97;;;;;;;;;;4177240;34;20117;-57
2021/03/16 04:47:09;;;;;;;11.27;3.67;;;;;;;;;;4177364;34;20190;-55
2021/03/16 04:49:34;;;;;;;16.35;3.87;;;;;;;;;;4177398;34;20142;-55
2021/03/16 04:52:00;;;;;;;15.23;4.12;;;;;;;;;;4177119;34;20127;-58
2021/03/16 04:54:27;;;;;;;17.58;4.55;;;;;;;;;;4177244;34;20114;-55
2021/03/16 04:56:53;;;;;;;16.50;3.72;;;;;;;;;;4177069;34;20315;-58
2021/03/16 04:59:19;;;;;;;12.75;3.80;;;;;;;;;;4177266;34;20525;-57
2021/03/16 05:01:44;;;;;;;20.85;3.97;;;;;;;;;;4177013;34;20169;-57
2021/03/16 05:04:10;;;;;;;23.52;4.15;;;;;;;;;;4176908;34;20512;-56
2021/03/16 05:06:39;;;;;;;22.08;4.53;;;;;;;;;;4177160;34;20102;-58
2021/03/16 05:09:05;;;;;;;14.93;4.40;;;;;;;;;;4185171;34;20094;-56
2021/03/16 05:11:35;;;;;;;27.58;4.60;;;;;;;;;;4190690;34;20534;-55
2021/03/16 05:14:07;;;;;;;18.73;4.75;;;;;;;;;;4190838;34;20194;-56
2021/03/16 05:16:33;;;;;;;20.52;4.30;;;;;;;;;;4190495;34;20533;-57
2021/03/16 05:19:01;;;;;;;26.42;4.15;;;;;;;;;;4190901;34;20102;-57
2021/03/16 05:21:28;;;;;;;23.40;4.50;;;;;;;;;;4190710;34;20129;-57
2021/03/16 05:23:54;;;;;;;22.40;4.70;;;;;;;;;;4190755;34;20106;-57
2021/03/16 05:26:20;;;;;;;18.80;4.15;;;;;;;;;;4190543;34;20177;-55
2021/03/16 05:28:46;;;;;;;15.98;4.55;;;;;;;;;;4190634;34;20122;-57
2021/03/16 05:31:12;;;;;;;27.08;4.37;;;;;;;;;;4190303;34;20125;-57
2021/03/16 05:33:38;;;;;;;22.35;3.78;;;;;;;;;;4190564;34;20102;-57
2021/03/16 05:36:04;;;;;;;16.23;4.10;;;;;;;;;;4190672;34;20125;-55
2021/03/16 05:38:30;;;;;;;21.87;4.12;;;;;;;;;;4190710;34;20126;-54
2021/03/16 05:40:56;;;;;;;19.10;3.72;;;;;;;;;;4190205;34;20144;-56
2021/03/16 05:43:21;;;;;;;11.80;3.35;;;;;;;;;;4177671;34;20113;-56
2021/03/16 05:45:47;;;;;;;25.00;5.95;;;;;;;;;;4177530;34;20446;-55
2021/03/16 05:48:13;;;;;;;21.35;4.10;;;;;;;;;;4177594;34;20526;-54
2021/03/16 05:50:39;;;;;;;27.30;4.40;;;;;;;;;;4178512;34;20099;-56
2021/03/16 05:53:05;;;;;;;30.08;4.50;;;;;;;;;;4179675;34;20145;-55
2021/03/16 05:55:31;;;;;;;18.10;4.18;;;;;;;;;;4192386;34;20122;-56
2021/03/16 05:57:57;;;;;;;28.83;7.37;;;;;;;;;;4192322;34;20193;-53
2021/03/16 06:00:23;;;;;;;28.45;4.07;;;;;;;;;;4179541;34;20576;-56
2021/03/16 06:02:49;;;;;;;18.23;4.75;;;;;;;;;;4192150;34;20205;-56
2021/03/16 06:05:16;;;;;;;23.73;4.70;;;;;;;;;;4192265;34;20130;-56
2021/03/16 06:07:51;;;;;;;16.37;4.22;;;;;;;;;;4192377;34;20126;-55
2021/03/16 06:10:19;;;;;;;22.95;3.85;;;;;;;;;;4192233;34;20133;-56
2021/03/16 06:12:45;;;;;;;18.33;3.90;;;;;;;;;;4192306;34;20354;-56
2021/03/16 06:15:16;;;;;;;20.30;4.22;;;;;;;;;;4179379;34;20606;-56
2021/03/16 06:17:51;;;;;;;28.08;5.97;;;;;;;;;;4192099;34;20677;-57
2021/03/16 06:20:33;;;;;;;28.10;4.22;;;;;;;;;;4179602;34;20124;-57
2021/03/16 06:23:09;;;;;;;31.73;4.40;;;;;;;;;;4192296;34;20137;-57
2021/03/16 06:25:40;;;;;;;18.15;4.15;;;;;;;;;;4192095;34;20113;-57
2021/03/16 06:28:09;;;;;;;18.05;3.80;;;;;;;;;;4192190;34;20116;-56
2021/03/16 06:30:36;;;;;;;15.48;4.60;;;;;;;;;;4192100;34;20575;-57
2021/03/16 06:33:02;;;;;;;14.25;3.62;;;;;;;;;;4192051;34;20120;-57
2021/03/16 06:35:28;;;;;;;26.25;3.90;;;;;;;;;;4192250;34;20129;-57
2021/03/16 06:38:10;;;;;;;15.38;3.62;;;;;;;;;;4192253;34;20185;-57
2021/03/16 06:40:36;;;;;;;16.15;3.95;;;;;;;;;;4191932;34;20537;-58
2021/03/16 06:43:09;;;;;;;15.07;5.53;;;;;;;;;;4191909;34;20118;-57
2021/03/16 06:45:36;;;;;;;15.45;3.55;;;;;;;;;;4191860;34;20110;-57
2021/03/16 06:48:21;;;;;;;13.25;3.60;;;;;;;;;;4191962;34;20129;-55
2021/03/16 06:50:47;;;;;;;11.40;3.35;;;;;;;;;;4191991;34;20193;-56
2021/03/16 06:53:26;;;;;;;13.55;3.42;;;;;;;;;;4192098;34;20146;-57
2021/03/16 06:55:57;;;;;;;8.52;3.08;;;;;;;;;;4191531;34;20106;-54
2021/03/16 06:58:26;;;;;;;17.00;3.33;;;;;;;;;;4192817;34;20110;-59
2021/03/16 07:01:16;;;;;;;12.93;3.42;;;;;;;;;;4192110;34;20106;-59
2021/03/16 07:03:42;;;;;;;6.47;2.92;;;;;;;;;;4191553;34;20206;-57
2021/03/16 07:06:12;;;;;;;10.75;3.65;;;;;;;;;;4191536;34;20113;-57
2021/03/16 07:08:38;;;;;;;15.20;3.72;;;;;;;;;;4191895;34;20118;-56
2021/03/16 07:11:06;;;;;;;11.12;2.83;;;;;;;;;;4191802;34;20126;-56
2021/03/16 07:13:33;;;;;;;9.45;3.30;;;;;;;;;;4191867;34;20200;-54
2021/03/16 07:16:04;;;;;;;20.50;3.92;;;;;;;;;;4191631;34;20191;-52
2021/03/16 07:18:37;;;;;;;14.23;3.40;;;;;;;;;;4191911;34;20229;-55
2021/03/16 07:21:08;;;;;;;13.10;3.78;;;;;;;;;;4191641;34;20105;-53
2021/03/16 07:23:50;;;;;;;17.42;3.53;;;;;;;;;;4191621;34;20185;-56
2021/03/16 07:26:16;;;;;;;14.57;3.12;;;;;;;;;;4191543;34;20093;-59
2021/03/16 07:28:51;;;;;;;12.37;3.72;;;;;;;;;;4191875;34;20444;-57
2021/03/16 07:31:17;;;;;;;17.85;3.85;;;;;;;;;;4191513;34;20115;-58
2021/03/16 07:33:43;;;;;;;14.85;3.75;;;;;;;;;;4178826;34;20153;-58
2021/03/16 07:36:09;;;;;;;10.85;3.85;;;;;;;;;;4191356;34;20138;-60
2021/03/16 07:38:37;;;;;;;10.38;4.30;;;;;;;;;;4191445;34;20114;-58
2021/03/16 07:41:03;;;;;;;7.90;3.30;;;;;;;;;;4191504;34;20100;-55
2021/03/16 07:43:33;;;;;;;6.87;3.25;;;;;;;;;;4191749;34;20495;-54
2021/03/16 07:46:14;;;;;;;14.32;3.65;;;;;;;;;;4191335;34;20166;-54
2021/03/16 07:48:53;;;;;;;10.30;3.80;;;;;;;;;;4191462;34;20132;-51
2021/03/16 07:51:20;;;;;;;10.93;3.55;;;;;;;;;;4191374;34;20124;-53
2021/03/16 07:53:59;;;;;;;11.68;3.50;;;;;;;;;;4191287;34;20529;-57
2021/03/16 07:56:26;;;;;;;12.90;3.90;;;;;;;;;;4191618;34;20130;-58
2021/03/16 07:58:52;;;;;;;7.60;3.53;;;;;;;;;;4191437;34;20136;-57
2021/03/16 08:01:18;;;;;;;12.95;4.22;;;;;;;;;;4191199;34;20190;-57
2021/03/16 08:03:44;;;;;;;13.35;3.67;;;;;;;;;;4191336;34;20133;-58
2021/03/16 08:06:26;;;;;;;5.62;2.92;;;;;;;;;;4191052;34;20619;-57
2021/03/16 08:08:52;;;;;;;7.97;3.55;;;;;;;;;;4191271;34;20121;-58
2021/03/16 08:11:19;;;;;;;8.70;3.17;;;;;;;;;;4191467;34;20166;-58
2021/03/16 08:13:58;;;;;;;5.15;2.70;;;;;;;;;;4190248;34;20098;-59
2021/03/16 08:16:42;;;;;;;6.05;3.00;;;;;;;;;;4191509;34;20133;-57
2021/03/16 08:19:16;;;;;;;5.30;2.87;;;;;;;;;;4191193;34;20117;-58
2021/03/16 08:21:42;;;;;;;7.55;2.72;;;;;;;;;;4191054;34;20210;-57
2021/03/16 08:24:15;;;;;;;5.37;2.50;;;;;;;;;;4191056;34;20222;-58
2021/03/16 08:26:48;;;;;;;12.10;3.30;;;;;;;;;;4191032;34;20132;-58
2021/03/16 08:29:14;;;;;;;16.35;3.50;;;;;;;;;;4191381;34;20217;-58
2021/03/16 08:31:40;;;;;;;10.60;3.70;;;;;;;;;;4191204;34;20110;-57
2021/03/16 08:34:07;;;;;;;6.32;3.35;;;;;;;;;;4191301;34;20446;-57
2021/03/16 08:36:43;;;;;;;5.90;3.17;;;;;;;;;;4190934;34;20197;-57
2021/03/16 08:39:15;;;;;;;8.57;3.50;;;;;;;;;;4178553;34;20121;-58
2021/03/16 08:41:57;;;;;;;9.93;3.40;;;;;;;;;;4178226;34;20681;-57
2021/03/16 08:44:24;;;;;;;6.50;3.45;;;;;;;;;;4191297;34;20610;-54
2021/03/16 08:46:50;;;;;;;3.83;2.80;;;;;;;;;;4191015;34;20134;-58
2021/03/16 08:49:19;;;;;;;5.12;2.97;;;;;;;;;;4190973;34;20538;-57
2021/03/16 08:51:45;;;;;;;4.70;3.42;;;;;;;;;;4190766;34;20162;-59
2021/03/16 08:54:11;;;;;;;7.22;2.60;;;;;;;;;;4178195;34;20114;-56
2021/03/16 08:56:37;;;;;;;2.85;2.53;;;;;;;;;;4190674;34;20156;-57
2021/03/16 08:59:04;;;;;;;5.43;2.30;;;;;;;;;;4178090;34;20113;-58
2021/03/16 09:01:31;;;;;;;3.87;2.95;;;;;;;;;;4190679;34;20173;-57
2021/03/16 09:04:16;;;;;;;6.05;2.87;;;;;;;;;;4177933;34;20114;-58
2021/03/16 09:06:42;;;;;;;5.63;2.90;;;;;;;;;;4190583;34;20118;-58
2021/03/16 09:09:09;;;;;;;4.65;2.85;;;;;;;;;;4190703;34;20503;-57
2021/03/16 09:11:41;;;;;;;4.28;2.80;;;;;;;;;;4190583;34;20090;-58
2021/03/16 09:14:11;;;;;;;2.30;2.10;;;;;;;;;;4190951;34;20105;-57
2021/03/16 09:16:46;;;;;;;8.65;2.80;;;;;;;;;;4190659;34;20117;-59
2021/03/16 09:19:14;;;;;;;4.47;2.03;;;;;;;;;;4190933;34;20478;-56
2021/03/16 09:22:02;;;;;;;3.83;2.80;;;;;;;;;;4190702;34;20531;-54
2021/03/16 09:24:29;;;;;;;5.00;2.72;;;;;;;;;;4190584;34;20114;-59
2021/03/16 09:27:00;;;;;;;5.90;2.70;;;;;;;;;;4192604;34;20104;-59
2021/03/16 09:29:30;;;;;;;6.60;2.85;;;;;;;;;;4192886;34;20106;-59
2021/03/16 09:32:00;;;;;;;5.90;3.25;;;;;;;;;;4192542;34;20470;-58
2021/03/16 09:34:26;;;;;;;8.98;3.10;;;;;;;;;;4168871;34;20118;-58
2021/03/16 09:37:09;;;;;;;4.32;3.08;;;;;;;;;;4168812;34;20190;-60
2021/03/16 09:39:36;;;;;;;4.53;3.08;;;;;;;;;;4192492;34;20185;-61
2021/03/16 09:42:03;;;;;;;4.45;3.00;;;;;;;;;;4192573;34;20128;-61
2021/03/16 09:44:40;;;;;;;7.32;3.25;;;;;;;;;;4192413;34;20102;-59
2021/03/16 09:47:06;;;;;;;6.03;3.10;;;;;;;;;;4192273;34;20222;-60
2021/03/16 09:49:34;;;;;;;5.75;3.15;;;;;;;;;;4192412;34;20208;-57
2021/03/16 09:52:04;;;;;;;4.20;3.20;;;;;;;;;;4192286;34;20110;-56
2021/03/16 09:54:44;;;;;;;4.62;2.90;;;;;;;;;;4192375;34;20124;-57
2021/03/16 09:57:15;;;;;;;5.97;2.95;;;;;;;;;;4180517;34;20510;-57
2021/03/16 09:59:43;;;;;;;4.93;3.05;;;;;;;;;;4192350;34;20118;-57
2021/03/16 10:02:09;;;;;;;5.82;3.03;;;;;;;;;;4192183;34;20482;-58
2021/03/16 10:04:48;;;;;;;4.12;2.80;;;;;;;;;;4192359;34;20482;-58
2021/03/16 10:07:26;;;;;;;9.43;3.35;;;;;;;;;;4192060;34;20134;-58
2021/03/16 10:09:53;;;;;;;5.93;2.80;;;;;;;;;;4192114;34;20156;-58
2021/03/16 10:12:20;;;;;;;4.00;3.03;;;;;;;;;;4192169;34;20103;-57
2021/03/16 10:14:51;;;;;;;9.95;3.42;;;;;;;;;;4192134;34;20122;-57
2021/03/16 10:17:27;;;;;;;5.10;2.70;;;;;;;;;;4192096;34;20094;-58
2021/03/16 10:19:54;;;;;;;6.85;3.20;;;;;;;;;;4192130;34;20105;-57
2021/03/16 10:22:26;;;;;;;10.23;3.70;;;;;;;;;;4179234;34;20114;-57
2021/03/16 10:24:59;;;;;;;3.65;3.10;;;;;;;;;;4192119;34;20683;-57
2021/03/16 10:27:26;;;;;;;9.27;2.97;;;;;;;;;;4192126;34;20499;-57
2021/03/16 10:29:53;;;;;;;7.65;3.42;;;;;;;;;;4192293;34;20314;-57
2021/03/16 10:32:18;;;;;;;6.70;3.47;;;;;;;;;;4192127;34;20204;-57
2021/03/16 10:34:44;;;;;;;6.57;3.42;;;;;;;;;;4192023;34;20117;-57
2021/03/16 10:37:21;;;;;;;6.43;3.55;;;;;;;;;;4191174;34;20601;-56
2021/03/16 10:39:47;;;;;;;5.82;2.97;;;;;;;;;;4191979;34;20101;-56
2021/03/16 10:42:13;;;;;;;5.03;3.40;;;;;;;;;;4191891;34;20127;-57
2021/03/16 10:44:39;;;;;;;5.78;3.00;;;;;;;;;;4191936;34;20206;-57
2021/03/16 10:47:05;;;;;;;4.90;2.95;;;;;;;;;;4191920;34;20114;-57
2021/03/16 10:49:32;;;;;;;4.28;3.12;;;;;;;;;;4192077;34;20112;-51
2021/03/16 10:51:58;;;;;;;8.63;2.70;;;;;;;;;;4191896;34;20124;-56
2021/03/16 10:54:24;;;;;;;4.45;2.78;;;;;;;;;;4192235;34;20237;-56
2021/03/16 10:56:51;;;;;;;4.95;2.90;;;;;;;;;;4191449;34;20557;-56
2021/03/16 10:59:17;;;;;;;5.22;2.80;;;;;;;;;;4190666;34;20110;-56
2021/03/16 11:01:43;;;;;;;4.62;3.42;;;;;;;;;;4191416;34;20141;-58
2021/03/16 11:04:09;;;;;;;4.62;2.90;;;;;;;;;;4191696;34;20134;-56
2021/03/16 11:06:35;;;;;;;6.75;3.03;;;;;;;;;;4191465;34;20564;-58
2021/03/16 11:09:01;;;;;;;5.78;3.15;;;;;;;;;;4191648;34;20114;-60
2021/03/16 11:11:27;;;;;;;6.07;2.80;;;;;;;;;;4178947;34;20153;-58
2021/03/16 11:13:54;;;;;;;6.28;2.90;;;;;;;;;;4191907;34;20133;-58
2021/03/16 11:16:21;;;;;;;7.30;2.90;;;;;;;;;;4191766;34;20112;-58
2021/03/16 11:18:46;;;;;;;6.25;3.25;;;;;;;;;;4191673;34;20282;-58
2021/03/16 11:21:12;;;;;;;11.38;5.60;;;;;;;;;;4191896;34;20154;-59
2021/03/16 11:23:38;;;;;;;8.18;5.45;;;;;;;;;;4191579;34;20620;-58
2021/03/16 11:26:04;;;;;;;6.50;3.42;;;;;;;;;;4191620;34;20125;-58
2021/03/16 11:28:30;;;;;;;7.75;3.50;;;;;;;;;;4191546;34;20132;-58
2021/03/16 11:30:56;;;;;;;6.40;3.37;;;;;;;;;;4191369;34;20222;-56
2021/03/16 11:33:22;;;;;;;4.65;3.25;;;;;;;;;;4191642;34;20215;-55
2021/03/16 11:35:48;;;;;;;7.32;3.45;;;;;;;;;;4191590;34;20114;-55
2021/03/16 11:38:15;;;;;;;5.28;3.70;;;;;;;;;;4191501;34;20254;-58
2021/03/16 11:40:41;;;;;;;7.90;3.83;;;;;;;;;;4191519;34;20127;-58
2021/03/16 11:43:07;;;;;;;6.57;3.75;;;;;;;;;;4191739;34;20129;-59
2021/03/16 11:45:33;;;;;;;8.30;5.87;;;;;;;;;;4191418;34;20518;-58
2021/03/16 11:47:59;;;;;;;8.75;6.37;;;;;;;;;;4191447;34;20117;-59
2021/03/16 11:50:24;;;;;;;9.23;5.30;;;;;;;;;;4191309;34;20198;-59
2021/03/16 11:52:51;;;;;;;8.15;5.00;;;;;;;;;;4191431;34;20144;-58
2021/03/16 11:55:17;;;;;;;7.40;3.50;;;;;;;;;;4191431;34;20552;-59
2021/03/16 11:57:42;;;;;;;6.22;3.10;;;;;;;;;;4191351;34;20109;-59
2021/03/16 12:00:09;;;;;;;10.68;4.12;;;;;;;;;;4191461;34;20232;-58
2021/03/16 12:02:35;;;;;;;8.70;2.70;;;;;;;;;;4191522;34;20190;-59
2021/03/16 12:05:01;;;;;;;7.57;3.15;;;;;;;;;;4191280;34;20118;-58
2021/03/16 12:07:27;;;;;;;8.73;3.25;;;;;;;;;;4191007;34;20118;-57
2021/03/16 12:09:53;;;;;;;6.18;4.70;;;;;;;;;;4191130;34;20150;-56
2021/03/16 12:12:19;;;;;;;7.65;4.10;;;;;;;;;;4191369;34;20128;-55
2021/03/16 12:14:45;;;;;;;6.93;3.65;;;;;;;;;;4191336;34;20117;-54
2021/03/16 12:17:12;;;;;;;8.38;3.83;;;;;;;;;;4191021;34;20125;-55
2021/03/16 12:19:38;;;;;;;10.90;3.53;;;;;;;;;;4191058;34;20132;-55
2021/03/16 12:22:04;;;;;;;4.12;2.90;;;;;;;;;;4191309;34;20211;-53
2021/03/16 12:24:31;;;;;;;6.60;3.22;;;;;;;;;;4191346;34;20125;-59
2021/03/16 12:26:56;;;;;;;7.28;2.67;;;;;;;;;;4191182;34;20121;-54
2021/03/16 12:29:22;;;;;;;5.18;2.70;;;;;;;;;;4191168;34;20181;-55
2021/03/16 12:31:48;;;;;;;7.57;2.62;;;;;;;;;;4178410;34;20234;-55
2021/03/16 12:34:14;;;;;;;7.00;2.75;;;;;;;;;;4190653;34;20121;-55
2021/03/16 12:36:40;;;;;;;7.78;3.00;;;;;;;;;;4190788;34;20136;-55
2021/03/16 12:39:07;;;;;;;9.00;2.85;;;;;;;;;;4191093;34;20458;-54
2021/03/16 12:41:34;;;;;;;5.03;3.03;;;;;;;;;;4190504;34;20107;-58
2021/03/16 12:43:59;;;;;;;4.35;2.75;;;;;;;;;;4191095;34;20117;-55
2021/03/16 12:46:27;;;;;;;5.40;3.28;;;;;;;;;;4190795;34;20130;-56
2021/03/16 12:48:53;;;;;;;7.20;3.00;;;;;;;;;;4178315;34;20511;-57
2021/03/16 12:51:19;;;;;;;4.53;2.45;;;;;;;;;;4191086;34;20115;-53
2021/03/16 12:53:45;;;;;;;4.57;2.92;;;;;;;;;;4190926;34;20120;-57
2021/03/16 12:56:12;;;;;;;9.43;2.80;;;;;;;;;;4190742;34;20114;-57
2021/03/16 12:58:38;;;;;;;5.95;2.97;;;;;;;;;;4190961;34;20621;-58
2021/03/16 13:01:04;;;;;;;8.35;3.08;;;;;;;;;;4190085;34;20141;-57
2021/03/16 13:03:30;;;;;;;7.68;3.40;;;;;;;;;;4190855;34;20124;-57
2021/03/16 13:05:56;;;;;;;3.78;2.33;;;;;;;;;;4190385;34;20193;-55
2021/03/16 13:08:22;;;;;;;5.53;2.80;;;;;;;;;;4190741;34;20192;-57
2021/03/16 13:10:48;;;;;;;7.47;3.03;;;;;;;;;;4190669;34;20206;-51
2021/03/16 13:13:14;;;;;;;6.87;2.87;;;;;;;;;;4190706;34;20117;-55
2021/03/16 13:15:39;;;;;;;3.90;3.20;;;;;;;;;;4190524;34;20110;-57
2021/03/16 13:18:06;;;;;;;10.55;3.72;;;;;;;;;;4190557;34;20137;-56
2021/03/16 13:20:33;;;;;;;6.12;3.72;;;;;;;;;;4190545;34;20118;-57
2021/03/16 13:22:59;;;;;;;5.07;3.20;;;;;;;;;;4190452;34;20193;-58
2021/03/16 13:25:25;;;;;;;6.53;3.22;;;;;;;;;;4190630;34;20125;-56
2021/03/16 13:27:51;;;;;;;15.20;3.22;;;;;;;;;;4190527;34;20117;-57
2021/03/16 13:30:18;;;;;;;5.68;3.22;;;;;;;;;;4177581;34;20102;-55
2021/03/16 13:32:44;;;;;;;12.50;6.28;;;;;;;;;;4190676;34;20106;-54
2021/03/16 13:35:11;;;;;;;8.13;3.50;;;;;;;;;;4190327;34;20466;-57
2021/03/16 13:37:37;;;;;;;9.68;3.37;;;;;;;;;;4190533;34;20161;-56
2021/03/16 13:40:04;;;;;;;7.05;3.15;;;;;;;;;;4190207;34;20114;-56
2021/03/16 13:42:30;;;;;;;8.13;3.62;;;;;;;;;;4190266;34;20094;-58
2021/03/16 13:44:56;;;;;;;9.32;3.15;;;;;;;;;;4190308;34;20140;-58
2021/03/16 13:47:21;;;;;;;11.45;3.00;;;;;;;;;;4190328;34;20478;-58
2021/03/16 13:49:51;;;;;;;8.88;3.45;;;;;;;;;;4190531;34;20137;-56
2021/03/16 13:52:16;;;;;;;6.15;3.20;;;;;;;;;;4190761;34;20117;-58
2021/03/16 13:54:42;;;;;;;6.65;3.15;;;;;;;;;;4190228;34;20149;-58
2021/03/16 13:57:08;;;;;;;6.87;3.20;;;;;;;;;;4190084;34;20117;-59
2021/03/16 13:59:34;;;;;;;9.57;3.25;;;;;;;;;;4189813;34;20214;-66
2021/03/16 14:02:00;;;;;;;7.43;3.37;;;;;;;;;;4190379;34;20110;-61
2021/03/16 14:04:26;;;;;;;6.87;3.53;;;;;;;;;;4190132;34;20114;-59
2021/03/16 14:06:55;;;;;;;8.95;3.47;;;;;;;;;;4189792;34;20178;-60
2021/03/16 14:09:22;;;;;;;5.75;4.10;;;;;;;;;;4190031;34;20125;-60
2021/03/16 14:11:48;;;;;;;10.18;4.65;;;;;;;;;;4191312;34;20130;-59
2021/03/16 14:14:14;;;;;;;5.40;3.92;;;;;;;;;;4192426;34;20221;-58
2021/03/16 14:16:40;;;;;;;8.07;4.25;;;;;;;;;;4192003;34;20098;-57
2021/03/16 14:19:06;;;;;;;12.23;4.07;;;;;;;;;;4192396;34;20210;-61
2021/03/16 14:21:32;;;;;;;8.30;3.53;;;;;;;;;;4192029;34;20586;-61
2021/03/16 14:23:58;;;;;;;4.62;3.03;;;;;;;;;;4192087;34;20121;-61
2021/03/16 14:26:24;;;;;;;6.85;3.28;;;;;;;;;;4192141;34;20138;-61
2021/03/16 14:28:50;;;;;;;5.75;4.03;;;;;;;;;;4192074;34;20148;-60
2021/03/16 14:31:17;;;;;;;4.72;3.20;;;;;;;;;;4191861;34;20542;-61
2021/03/16 14:33:44;;;;;;;7.55;3.00;;;;;;;;;;4192105;34;20212;-61
2021/03/16 14:36:10;;;;;;;8.85;3.35;;;;;;;;;;4191887;34;20102;-62
2021/03/16 14:38:36;;;;;;;8.07;3.85;;;;;;;;;;4192023;34;20530;-60
2021/03/16 14:41:02;;;;;;;6.97;3.33;;;;;;;;;;4179134;34;20185;-61
2021/03/16 14:43:28;;;;;;;3.37;3.08;;;;;;;;;;4192038;34;20124;-61
2021/03/16 14:45:54;;;;;;;7.53;4.00;;;;;;;;;;4192139;34;20133;-61
2021/03/16 14:48:20;;;;;;;7.82;3.47;;;;;;;;;;4191984;34;20109;-59